sensor_id;sensor_type;location;lat;lon;timestamp;temperature;humidity
25963;DHT22;13760;52.588;13.406;2023-02-15T00:00:25;3.80;99.90
25963;DHT22;13760;52.588;13.406;2023-02-15T00:08:27;3.70;99.90
25963;DHT22;13760;52.588;13.406;2023-02-15T00:10:53;3.60;99.90
25963;DHT22;13760;52.588;13.406;2023-02-15T00:13:28;3.60;99.90
25963;DHT22;13760;52.588;13.406;2023-02-15T00:15:54;3.60;99.90
25963;DHT22;13760;52.588;13.406;2023-02-15T00:18:19;3.50;99.90
25963;DHT22;13760;52.588;13.406;2023-02-15T00:20:51;3.50;99.90
25963;DHT22;13760;52.588;13.406;2023-02-15T00:23:17;3.40;99.90
25963;DHT22;13760;52.588;13.406;2023-02-15T00:25:46;3.40;99.90
25963;DHT22;13760;52.588;13.406;2023-02-15T00:28:15;3.30;99.90
25963;DHT22;13760;52.588;13.406;2023-02-15T00:30:41;3.20;99.90
25963;DHT22;13760;52.588;13.406;2023-02-15T00:33:13;3.20;99.90
25963;DHT22;13760;52.588;13.406;2023-02-15T00:35:39;3.10;99.90
25963;DHT22;13760;52.588;13.406;2023-02-15T00:41:08;3.00;99.90
25963;DHT22;13760;52.588;13.406;2023-02-15T00:43:34;2.90;99.90
25963;DHT22;13760;52.588;13.406;2023-02-15T00:46:00;2.80;99.90
25963;DHT22;13760;52.588;13.406;2023-02-15T00:48:28;2.80;99.90
25963;DHT22;13760;52.588;13.406;2023-02-15T00:50:54;2.70;99.90
25963;DHT22;13760;52.588;13.406;2023-02-15T00:53:20;2.60;99.90
25963;DHT22;13760;52.588;13.406;2023-02-15T00:55:46;2.60;99.90
25963;DHT22;13760;52.588;13.406;2023-02-15T00:58:12;2.50;99.90
25963;DHT22;13760;52.588;13.406;2023-02-15T01:00:38;2.40;99.90
25963;DHT22;13760;52.588;13.406;2023-02-15T01:03:05;2.40;99.90
25963;DHT22;13760;52.588;13.406;2023-02-15T01:05:30;2.30;99.90
25963;DHT22;13760;52.588;13.406;2023-02-15T01:07:56;2.20;99.90
25963;DHT22;13760;52.588;13.406;2023-02-15T01:10:22;2.20;99.90
25963;DHT22;13760;52.588;13.406;2023-02-15T01:12:47;2.20;99.90
25963;DHT22;13760;52.588;13.406;2023-02-15T01:15:13;2.10;99.90
25963;DHT22;13760;52.588;13.406;2023-02-15T01:17:42;2.10;99.90
25963;DHT22;13760;52.588;13.406;2023-02-15T01:20:09;2.00;99.90
25963;DHT22;13760;52.588;13.406;2023-02-15T01:22:35;2.00;99.90
25963;DHT22;13760;52.588;13.406;2023-02-15T01:25:00;1.90;99.90
25963;DHT22;13760;52.588;13.406;2023-02-15T01:27:26;1.90;99.90
25963;DHT22;13760;52.588;13.406;2023-02-15T01:29:51;1.80;99.90
25963;DHT22;13760;52.588;13.406;2023-02-15T01:32:16;1.80;99.90
25963;DHT22;13760;52.588;13.406;2023-02-15T01:34:42;1.80;99.90
25963;DHT22;13760;52.588;13.406;2023-02-15T01:37:07;1.70;99.90
25963;DHT22;13760;52.588;13.406;2023-02-15T01:39:33;1.70;99.90
25963;DHT22;13760;52.588;13.406;2023-02-15T01:41:58;1.70;99.90
25963;DHT22;13760;52.588;13.406;2023-02-15T01:44:58;1.60;99.90
25963;DHT22;13760;52.588;13.406;2023-02-15T01:49:53;1.50;99.90
25963;DHT22;13760;52.588;13.406;2023-02-15T01:52:23;1.50;99.90
25963;DHT22;13760;52.588;13.406;2023-02-15T01:54:48;1.40;99.90
25963;DHT22;13760;52.588;13.406;2023-02-15T01:57:16;1.40;99.90
25963;DHT22;13760;52.588;13.406;2023-02-15T01:59:42;1.30;99.90
25963;DHT22;13760;52.588;13.406;2023-02-15T02:02:11;1.30;99.90
25963;DHT22;13760;52.588;13.406;2023-02-15T02:04:39;1.30;99.90
25963;DHT22;13760;52.588;13.406;2023-02-15T02:07:06;1.30;99.90
25963;DHT22;13760;52.588;13.406;2023-02-15T02:09:33;1.20;99.90
25963;DHT22;13760;52.588;13.406;2023-02-15T02:11:59;1.20;99.90
25963;DHT22;13760;52.588;13.406;2023-02-15T02:14:25;1.10;99.90
25963;DHT22;13760;52.588;13.406;2023-02-15T02:19:45;1.10;99.90
25963;DHT22;13760;52.588;13.406;2023-02-15T02:35:18;1.00;99.90
25963;DHT22;13760;52.588;13.406;2023-02-15T02:37:57;1.00;99.90
25963;DHT22;13760;52.588;13.406;2023-02-15T02:40:48;1.00;99.90
25963;DHT22;13760;52.588;13.406;2023-02-15T02:43:21;1.00;99.90
25963;DHT22;13760;52.588;13.406;2023-02-15T02:45:58;1.00;99.90
25963;DHT22;13760;52.588;13.406;2023-02-15T02:48:26;1.00;99.90
25963;DHT22;13760;52.588;13.406;2023-02-15T02:50:52;1.00;99.90
25963;DHT22;13760;52.588;13.406;2023-02-15T02:53:17;1.00;99.90
25963;DHT22;13760;52.588;13.406;2023-02-15T02:55:45;1.00;99.90
25963;DHT22;13760;52.588;13.406;2023-02-15T03:00:44;1.00;99.90
25963;DHT22;13760;52.588;13.406;2023-02-15T03:03:16;1.00;99.90
25963;DHT22;13760;52.588;13.406;2023-02-15T03:05:45;0.90;99.90
25963;DHT22;13760;52.588;13.406;2023-02-15T03:08:13;0.90;99.90
25963;DHT22;13760;52.588;13.406;2023-02-15T03:10:46;0.90;99.90
25963;DHT22;13760;52.588;13.406;2023-02-15T03:13:12;0.90;99.90
25963;DHT22;13760;52.588;13.406;2023-02-15T03:15:38;0.80;99.90
25963;DHT22;13760;52.588;13.406;2023-02-15T03:18:24;0.80;99.90
25963;DHT22;13760;52.588;13.406;2023-02-15T03:20:51;0.80;99.90
25963;DHT22;13760;52.588;13.406;2023-02-15T03:23:18;0.80;99.90
25963;DHT22;13760;52.588;13.406;2023-02-15T03:25:46;0.70;99.90
25963;DHT22;13760;52.588;13.406;2023-02-15T03:28:15;0.70;99.90
25963;DHT22;13760;52.588;13.406;2023-02-15T03:30:44;0.70;99.90
25963;DHT22;13760;52.588;13.406;2023-02-15T03:33:11;0.70;99.90
25963;DHT22;13760;52.588;13.406;2023-02-15T03:35:40;0.60;99.90
25963;DHT22;13760;52.588;13.406;2023-02-15T03:38:06;0.60;99.90
25963;DHT22;13760;52.588;13.406;2023-02-15T03:40:37;0.60;99.90
25963;DHT22;13760;52.588;13.406;2023-02-15T03:43:28;0.60;99.90
25963;DHT22;13760;52.588;13.406;2023-02-15T03:45:56;0.60;99.90
25963;DHT22;13760;52.588;13.406;2023-02-15T03:48:25;0.60;99.90
25963;DHT22;13760;52.588;13.406;2023-02-15T03:50:52;0.60;99.90
25963;DHT22;13760;52.588;13.406;2023-02-15T03:53:39;0.60;99.90
25963;DHT22;13760;52.588;13.406;2023-02-15T03:56:05;0.60;99.90
25963;DHT22;13760;52.588;13.406;2023-02-15T03:58:30;0.60;99.90
25963;DHT22;13760;52.588;13.406;2023-02-15T04:01:34;0.60;99.90
25963;DHT22;13760;52.588;13.406;2023-02-15T04:04:19;0.50;99.90
25963;DHT22;13760;52.588;13.406;2023-02-15T04:06:45;0.50;99.90
25963;DHT22;13760;52.588;13.406;2023-02-15T04:09:11;0.50;99.90
25963;DHT22;13760;52.588;13.406;2023-02-15T04:11:55;0.40;99.90
25963;DHT22;13760;52.588;13.406;2023-02-15T04:14:21;0.40;99.90
25963;DHT22;13760;52.588;13.406;2023-02-15T04:17:08;0.40;99.90
25963;DHT22;13760;52.588;13.406;2023-02-15T04:19:34;0.40;99.90
25963;DHT22;13760;52.588;13.406;2023-02-15T04:22:18;0.40;99.90
25963;DHT22;13760;52.588;13.406;2023-02-15T04:25:02;0.30;99.90
25963;DHT22;13760;52.588;13.406;2023-02-15T04:27:35;0.30;99.90
25963;DHT22;13760;52.588;13.406;2023-02-15T04:30:00;0.30;99.90
25963;DHT22;13760;52.588;13.406;2023-02-15T04:32:25;0.30;99.90
25963;DHT22;13760;52.588;13.406;2023-02-15T04:34:51;0.30;99.90
25963;DHT22;13760;52.588;13.406;2023-02-15T04:37:17;0.20;99.90
25963;DHT22;13760;52.588;13.406;2023-02-15T04:39:42;0.20;99.90
25963;DHT22;13760;52.588;13.406;2023-02-15T04:42:08;0.20;99.90
25963;DHT22;13760;52.588;13.406;2023-02-15T04:44:33;0.20;99.90
25963;DHT22;13760;52.588;13.406;2023-02-15T04:46:59;0.10;99.90
25963;DHT22;13760;52.588;13.406;2023-02-15T04:49:24;0.10;99.90
25963;DHT22;13760;52.588;13.406;2023-02-15T04:51:49;0.10;99.90
25963;DHT22;13760;52.588;13.406;2023-02-15T04:54:15;0.10;99.90
25963;DHT22;13760;52.588;13.406;2023-02-15T04:56:40;0.10;99.90
25963;DHT22;13760;52.588;13.406;2023-02-15T04:59:09;0.10;99.90
25963;DHT22;13760;52.588;13.406;2023-02-15T05:01:35;0.00;99.90
25963;DHT22;13760;52.588;13.406;2023-02-15T05:04:00;0.00;99.90
25963;DHT22;13760;52.588;13.406;2023-02-15T05:06:26;0.00;99.90
25963;DHT22;13760;52.588;13.406;2023-02-15T05:08:51;-0.10;99.90
25963;DHT22;13760;52.588;13.406;2023-02-15T05:11:17;-0.10;99.90
25963;DHT22;13760;52.588;13.406;2023-02-15T05:13:42;-0.10;99.90
25963;DHT22;13760;52.588;13.406;2023-02-15T05:16:07;-0.10;99.90
25963;DHT22;13760;52.588;13.406;2023-02-15T05:18:33;-0.10;99.90
25963;DHT22;13760;52.588;13.406;2023-02-15T05:20:59;-0.10;99.90
25963;DHT22;13760;52.588;13.406;2023-02-15T05:23:34;-0.10;99.90
25963;DHT22;13760;52.588;13.406;2023-02-15T05:26:01;-0.10;99.90
25963;DHT22;13760;52.588;13.406;2023-02-15T05:28:46;0.00;99.90
25963;DHT22;13760;52.588;13.406;2023-02-15T05:31:15;0.00;99.90
25963;DHT22;13760;52.588;13.406;2023-02-15T05:33:42;0.00;99.90
25963;DHT22;13760;52.588;13.406;2023-02-15T05:36:07;-0.10;99.90
25963;DHT22;13760;52.588;13.406;2023-02-15T05:38:33;-0.10;99.90
25963;DHT22;13760;52.588;13.406;2023-02-15T05:40:58;-0.10;99.90
25963;DHT22;13760;52.588;13.406;2023-02-15T05:43:24;-0.10;99.90
25963;DHT22;13760;52.588;13.406;2023-02-15T05:45:51;-0.10;99.90
25963;DHT22;13760;52.588;13.406;2023-02-15T05:48:17;-0.10;99.90
25963;DHT22;13760;52.588;13.406;2023-02-15T05:50:43;-0.10;99.90
25963;DHT22;13760;52.588;13.406;2023-02-15T05:53:08;-0.10;99.90
25963;DHT22;13760;52.588;13.406;2023-02-15T05:55:34;-0.10;99.90
25963;DHT22;13760;52.588;13.406;2023-02-15T05:57:59;-0.10;99.90
25963;DHT22;13760;52.588;13.406;2023-02-15T06:00:24;0.00;99.90
25963;DHT22;13760;52.588;13.406;2023-02-15T06:02:50;0.00;99.90
25963;DHT22;13760;52.588;13.406;2023-02-15T06:05:16;0.10;99.90
25963;DHT22;13760;52.588;13.406;2023-02-15T06:07:44;0.10;99.90
25963;DHT22;13760;52.588;13.406;2023-02-15T06:10:10;0.20;99.90
25963;DHT22;13760;52.588;13.406;2023-02-15T06:12:36;0.20;99.90
25963;DHT22;13760;52.588;13.406;2023-02-15T06:15:01;0.30;99.90
25963;DHT22;13760;52.588;13.406;2023-02-15T06:17:27;0.30;99.90
25963;DHT22;13760;52.588;13.406;2023-02-15T06:19:52;0.30;99.90
25963;DHT22;13760;52.588;13.406;2023-02-15T06:22:18;0.30;99.90
25963;DHT22;13760;52.588;13.406;2023-02-15T06:24:43;0.30;99.90
25963;DHT22;13760;52.588;13.406;2023-02-15T06:27:09;0.40;99.90
25963;DHT22;13760;52.588;13.406;2023-02-15T06:29:35;0.40;99.90
25963;DHT22;13760;52.588;13.406;2023-02-15T06:32:00;0.40;99.90
25963;DHT22;13760;52.588;13.406;2023-02-15T06:34:26;0.40;99.90
25963;DHT22;13760;52.588;13.406;2023-02-15T06:36:51;0.40;99.90
25963;DHT22;13760;52.588;13.406;2023-02-15T06:39:17;0.40;99.90
25963;DHT22;13760;52.588;13.406;2023-02-15T06:41:42;0.40;99.90
25963;DHT22;13760;52.588;13.406;2023-02-15T06:44:08;0.40;99.90
25963;DHT22;13760;52.588;13.406;2023-02-15T06:46:33;0.40;99.90
25963;DHT22;13760;52.588;13.406;2023-02-15T06:48:58;0.40;99.90
25963;DHT22;13760;52.588;13.406;2023-02-15T06:51:24;0.40;99.90
25963;DHT22;13760;52.588;13.406;2023-02-15T06:53:49;0.50;99.90
25963;DHT22;13760;52.588;13.406;2023-02-15T06:56:15;0.50;99.90
25963;DHT22;13760;52.588;13.406;2023-02-15T06:58:41;0.50;99.90
25963;DHT22;13760;52.588;13.406;2023-02-15T07:01:13;0.50;99.90
25963;DHT22;13760;52.588;13.406;2023-02-15T07:03:43;0.50;99.90
25963;DHT22;13760;52.588;13.406;2023-02-15T07:06:08;0.50;99.90
25963;DHT22;13760;52.588;13.406;2023-02-15T07:08:36;0.60;99.90
25963;DHT22;13760;52.588;13.406;2023-02-15T07:11:01;0.60;99.90
25963;DHT22;13760;52.588;13.406;2023-02-15T07:13:46;0.60;99.90
25963;DHT22;13760;52.588;13.406;2023-02-15T07:16:12;0.70;99.90
25963;DHT22;13760;52.588;13.406;2023-02-15T07:18:45;0.70;99.90
25963;DHT22;13760;52.588;13.406;2023-02-15T07:21:11;0.70;99.90
25963;DHT22;13760;52.588;13.406;2023-02-15T07:23:37;0.70;99.90
25963;DHT22;13760;52.588;13.406;2023-02-15T07:26:02;0.70;99.90
25963;DHT22;13760;52.588;13.406;2023-02-15T07:28:28;0.80;99.90
25963;DHT22;13760;52.588;13.406;2023-02-15T07:30:54;0.80;99.90
25963;DHT22;13760;52.588;13.406;2023-02-15T07:33:19;0.80;99.90
25963;DHT22;13760;52.588;13.406;2023-02-15T07:35:51;0.80;99.90
25963;DHT22;13760;52.588;13.406;2023-02-15T07:38:17;0.80;99.90
25963;DHT22;13760;52.588;13.406;2023-02-15T07:40:43;0.80;99.90
25963;DHT22;13760;52.588;13.406;2023-02-15T07:43:09;0.80;99.90
25963;DHT22;13760;52.588;13.406;2023-02-15T07:45:34;0.90;99.90
25963;DHT22;13760;52.588;13.406;2023-02-15T07:48:00;0.90;99.90
25963;DHT22;13760;52.588;13.406;2023-02-15T07:50:26;0.90;99.90
25963;DHT22;13760;52.588;13.406;2023-02-15T07:52:51;0.90;99.90
25963;DHT22;13760;52.588;13.406;2023-02-15T07:55:17;0.90;99.90
25963;DHT22;13760;52.588;13.406;2023-02-15T07:57:44;0.90;99.90
25963;DHT22;13760;52.588;13.406;2023-02-15T08:00:10;1.00;99.90
25963;DHT22;13760;52.588;13.406;2023-02-15T08:02:36;0.90;99.90
25963;DHT22;13760;52.588;13.406;2023-02-15T08:05:02;1.00;99.90
25963;DHT22;13760;52.588;13.406;2023-02-15T08:07:28;1.00;99.90
25963;DHT22;13760;52.588;13.406;2023-02-15T08:09:53;1.00;99.90
25963;DHT22;13760;52.588;13.406;2023-02-15T08:12:19;1.00;99.90
25963;DHT22;13760;52.588;13.406;2023-02-15T08:14:44;1.10;99.90
25963;DHT22;13760;52.588;13.406;2023-02-15T08:17:09;1.10;99.90
25963;DHT22;13760;52.588;13.406;2023-02-15T08:19:35;1.10;99.90
25963;DHT22;13760;52.588;13.406;2023-02-15T08:22:02;1.10;99.90
25963;DHT22;13760;52.588;13.406;2023-02-15T08:24:30;1.20;99.90
25963;DHT22;13760;52.588;13.406;2023-02-15T08:26:56;1.20;99.90
25963;DHT22;13760;52.588;13.406;2023-02-15T08:29:23;1.30;99.90
25963;DHT22;13760;52.588;13.406;2023-02-15T08:31:49;1.30;99.90
25963;DHT22;13760;52.588;13.406;2023-02-15T08:34:16;1.40;99.90
25963;DHT22;13760;52.588;13.406;2023-02-15T08:36:42;1.40;99.90
25963;DHT22;13760;52.588;13.406;2023-02-15T08:39:07;1.50;99.90
25963;DHT22;13760;52.588;13.406;2023-02-15T08:41:36;1.50;99.90
25963;DHT22;13760;52.588;13.406;2023-02-15T08:44:03;1.50;99.90
25963;DHT22;13760;52.588;13.406;2023-02-15T08:46:30;1.50;99.90
25963;DHT22;13760;52.588;13.406;2023-02-15T08:48:56;1.60;99.90
25963;DHT22;13760;52.588;13.406;2023-02-15T08:51:23;1.70;99.90
25963;DHT22;13760;52.588;13.406;2023-02-15T08:53:51;1.70;99.90
25963;DHT22;13760;52.588;13.406;2023-02-15T08:56:17;1.80;99.90
25963;DHT22;13760;52.588;13.406;2023-02-15T08:58:43;1.70;99.90
25963;DHT22;13760;52.588;13.406;2023-02-15T09:01:18;1.80;99.90
25963;DHT22;13760;52.588;13.406;2023-02-15T09:03:46;1.90;99.90
25963;DHT22;13760;52.588;13.406;2023-02-15T09:06:12;1.90;99.90
25963;DHT22;13760;52.588;13.406;2023-02-15T09:08:37;1.90;99.90
25963;DHT22;13760;52.588;13.406;2023-02-15T09:11:06;2.00;99.90
25963;DHT22;13760;52.588;13.406;2023-02-15T09:13:32;2.00;99.90
25963;DHT22;13760;52.588;13.406;2023-02-15T09:16:03;2.10;99.90
25963;DHT22;13760;52.588;13.406;2023-02-15T09:18:30;2.20;99.90
25963;DHT22;13760;52.588;13.406;2023-02-15T09:20:56;2.30;99.90
25963;DHT22;13760;52.588;13.406;2023-02-15T09:23:21;2.40;99.90
25963;DHT22;13760;52.588;13.406;2023-02-15T09:25:47;2.40;99.90
25963;DHT22;13760;52.588;13.406;2023-02-15T09:28:12;2.50;99.90
25963;DHT22;13760;52.588;13.406;2023-02-15T09:30:38;2.50;99.90
25963;DHT22;13760;52.588;13.406;2023-02-15T09:33:03;2.60;99.90
25963;DHT22;13760;52.588;13.406;2023-02-15T09:35:29;2.70;99.90
25963;DHT22;13760;52.588;13.406;2023-02-15T09:37:54;2.80;99.90
25963;DHT22;13760;52.588;13.406;2023-02-15T09:40:20;2.80;99.90
25963;DHT22;13760;52.588;13.406;2023-02-15T09:43:01;3.00;99.90
25963;DHT22;13760;52.588;13.406;2023-02-15T09:48:06;3.20;99.90
25963;DHT22;13760;52.588;13.406;2023-02-15T09:53:44;3.30;99.90
25963;DHT22;13760;52.588;13.406;2023-02-15T09:56:30;3.30;99.90
25963;DHT22;13760;52.588;13.406;2023-02-15T09:59:03;3.40;99.90
25963;DHT22;13760;52.588;13.406;2023-02-15T10:04:22;3.50;99.90
25963;DHT22;13760;52.588;13.406;2023-02-15T10:07:08;3.60;99.90
25963;DHT22;13760;52.588;13.406;2023-02-15T10:14:47;3.80;99.90
25963;DHT22;13760;52.588;13.406;2023-02-15T10:17:19;3.90;99.90
25963;DHT22;13760;52.588;13.406;2023-02-15T10:22:25;4.00;99.90
25963;DHT22;13760;52.588;13.406;2023-02-15T10:27:51;4.00;99.90
25963;DHT22;13760;52.588;13.406;2023-02-15T10:33:01;4.20;99.90
25963;DHT22;13760;52.588;13.406;2023-02-15T10:35:46;4.20;99.90
25963;DHT22;13760;52.588;13.406;2023-02-15T10:48:39;4.70;99.90
25963;DHT22;13760;52.588;13.406;2023-02-15T10:51:15;4.90;99.90
25963;DHT22;13760;52.588;13.406;2023-02-15T10:56:34;5.10;99.90
25963;DHT22;13760;52.588;13.406;2023-02-15T11:06:48;5.60;99.90
25963;DHT22;13760;52.588;13.406;2023-02-15T11:09:16;5.70;99.90
25963;DHT22;13760;52.588;13.406;2023-02-15T11:11:44;5.80;99.90
25963;DHT22;13760;52.588;13.406;2023-02-15T11:14:20;5.90;99.90
25963;DHT22;13760;52.588;13.406;2023-02-15T11:16:49;6.00;99.90
25963;DHT22;13760;52.588;13.406;2023-02-15T11:19:22;6.20;99.90
25963;DHT22;13760;52.588;13.406;2023-02-15T11:21:50;6.30;99.90
25963;DHT22;13760;52.588;13.406;2023-02-15T11:24:19;6.40;99.90
25963;DHT22;13760;52.588;13.406;2023-02-15T11:26:49;6.50;99.90
25963;DHT22;13760;52.588;13.406;2023-02-15T11:29:21;6.60;99.90
25963;DHT22;13760;52.588;13.406;2023-02-15T11:32:32;6.70;99.90
25963;DHT22;13760;52.588;13.406;2023-02-15T11:34:47;6.90;99.90
25963;DHT22;13760;52.588;13.406;2023-02-15T11:37:16;7.00;99.90
25963;DHT22;13760;52.588;13.406;2023-02-15T11:39:43;7.20;99.90
25963;DHT22;13760;52.588;13.406;2023-02-15T11:42:12;7.20;99.90
25963;DHT22;13760;52.588;13.406;2023-02-15T11:44:39;7.30;99.90
25963;DHT22;13760;52.588;13.406;2023-02-15T11:47:13;7.30;99.90
25963;DHT22;13760;52.588;13.406;2023-02-15T11:49:39;7.40;99.90
25963;DHT22;13760;52.588;13.406;2023-02-15T11:52:07;7.50;99.90
25963;DHT22;13760;52.588;13.406;2023-02-15T11:54:56;7.60;99.90
25963;DHT22;13760;52.588;13.406;2023-02-15T11:59:57;7.80;99.90
25963;DHT22;13760;52.588;13.406;2023-02-15T12:02:23;7.90;99.90
25963;DHT22;13760;52.588;13.406;2023-02-15T12:04:54;8.00;99.90
25963;DHT22;13760;52.588;13.406;2023-02-15T12:07:23;8.00;99.90
25963;DHT22;13760;52.588;13.406;2023-02-15T12:12:26;8.10;99.90
25963;DHT22;13760;52.588;13.406;2023-02-15T12:14:53;8.30;99.90
25963;DHT22;13760;52.588;13.406;2023-02-15T12:22:58;8.50;99.90
25963;DHT22;13760;52.588;13.406;2023-02-15T12:27:52;8.80;99.90
25963;DHT22;13760;52.588;13.406;2023-02-15T12:30:20;8.90;99.90
25963;DHT22;13760;52.588;13.406;2023-02-15T12:32:48;9.00;99.90
25963;DHT22;13760;52.588;13.406;2023-02-15T12:35:21;9.00;99.90
25963;DHT22;13760;52.588;13.406;2023-02-15T12:37:52;9.20;99.90
25963;DHT22;13760;52.588;13.406;2023-02-15T12:40:26;9.30;99.90
25963;DHT22;13760;52.588;13.406;2023-02-15T12:42:53;9.50;99.90
25963;DHT22;13760;52.588;13.406;2023-02-15T12:45:32;9.60;99.90
25963;DHT22;13760;52.588;13.406;2023-02-15T12:50:52;9.80;99.90
25963;DHT22;13760;52.588;13.406;2023-02-15T12:53:33;9.90;99.90
25963;DHT22;13760;52.588;13.406;2023-02-15T12:56:02;10.00;99.90
25963;DHT22;13760;52.588;13.406;2023-02-15T12:58:29;10.00;99.90
25963;DHT22;13760;52.588;13.406;2023-02-15T13:01:14;10.00;99.90
25963;DHT22;13760;52.588;13.406;2023-02-15T13:06:18;10.30;99.90
25963;DHT22;13760;52.588;13.406;2023-02-15T13:08:50;10.40;99.90
25963;DHT22;13760;52.588;13.406;2023-02-15T13:11:27;10.50;99.90
25963;DHT22;13760;52.588;13.406;2023-02-15T13:14:13;10.50;99.90
25963;DHT22;13760;52.588;13.406;2023-02-15T13:16:40;10.70;99.90
25963;DHT22;13760;52.588;13.406;2023-02-15T13:19:16;10.80;99.90
25963;DHT22;13760;52.588;13.406;2023-02-15T13:21:47;10.80;99.90
25963;DHT22;13760;52.588;13.406;2023-02-15T13:26:57;11.00;99.90
25963;DHT22;13760;52.588;13.406;2023-02-15T13:29:24;11.00;99.90
25963;DHT22;13760;52.588;13.406;2023-02-15T13:31:51;11.10;99.90
25963;DHT22;13760;52.588;13.406;2023-02-15T13:49:25;11.40;99.90
25963;DHT22;13760;52.588;13.406;2023-02-15T13:52:07;11.40;99.90
25963;DHT22;13760;52.588;13.406;2023-02-15T13:54:53;11.30;99.90
25963;DHT22;13760;52.588;13.406;2023-02-15T13:57:34;11.20;99.90
25963;DHT22;13760;52.588;13.406;2023-02-15T14:07:53;11.10;99.90
25963;DHT22;13760;52.588;13.406;2023-02-15T14:13:03;11.00;99.90
25963;DHT22;13760;52.588;13.406;2023-02-15T14:15:47;11.00;99.90
25963;DHT22;13760;52.588;13.406;2023-02-15T14:20:56;10.90;99.90
25963;DHT22;13760;52.588;13.406;2023-02-15T14:26:10;11.00;99.90
25963;DHT22;13760;52.588;13.406;2023-02-15T14:28:40;10.90;99.90
25963;DHT22;13760;52.588;13.406;2023-02-15T14:31:08;10.80;99.90
25963;DHT22;13760;52.588;13.406;2023-02-15T14:33:39;10.70;99.90
25963;DHT22;13760;52.588;13.406;2023-02-15T14:36:08;10.60;99.90
25963;DHT22;13760;52.588;13.406;2023-02-15T14:41:06;10.40;99.90
25963;DHT22;13760;52.588;13.406;2023-02-15T14:48:53;10.10;99.90
25963;DHT22;13760;52.588;13.406;2023-02-15T14:51:53;10.00;99.90
25963;DHT22;13760;52.588;13.406;2023-02-15T14:56:44;9.90;99.90
25963;DHT22;13760;52.588;13.406;2023-02-15T14:59:17;9.90;99.90
25963;DHT22;13760;52.588;13.406;2023-02-15T15:01:55;9.80;99.90
25963;DHT22;13760;52.588;13.406;2023-02-15T15:04:26;9.70;99.90
25963;DHT22;13760;52.588;13.406;2023-02-15T15:07:00;9.60;99.90
25963;DHT22;13760;52.588;13.406;2023-02-15T15:09:27;9.60;99.90
25963;DHT22;13760;52.588;13.406;2023-02-15T15:11:53;9.50;99.90
25963;DHT22;13760;52.588;13.406;2023-02-15T15:16:56;9.40;99.90
25963;DHT22;13760;52.588;13.406;2023-02-15T15:22:12;9.30;99.90
25963;DHT22;13760;52.588;13.406;2023-02-15T15:38:12;9.00;99.90
25963;DHT22;13760;52.588;13.406;2023-02-15T15:40:55;8.90;99.90
25963;DHT22;13760;52.588;13.406;2023-02-15T15:46:25;8.80;99.90
25963;DHT22;13760;52.588;13.406;2023-02-15T15:48:57;8.70;99.90
25963;DHT22;13760;52.588;13.406;2023-02-15T15:51:32;8.60;99.90
25963;DHT22;13760;52.588;13.406;2023-02-15T15:53:58;8.50;99.90
25963;DHT22;13760;52.588;13.406;2023-02-15T15:56:26;8.50;99.90
25963;DHT22;13760;52.588;13.406;2023-02-15T15:58:54;8.40;99.90
25963;DHT22;13760;52.588;13.406;2023-02-15T16:01:29;8.30;99.90
25963;DHT22;13760;52.588;13.406;2023-02-15T16:03:56;8.20;99.90
25963;DHT22;13760;52.588;13.406;2023-02-15T16:06:35;8.10;99.90
25963;DHT22;13760;52.588;13.406;2023-02-15T16:11:35;7.90;99.90
25963;DHT22;13760;52.588;13.406;2023-02-15T16:14:10;7.80;99.90
25963;DHT22;13760;52.588;13.406;2023-02-15T16:16:36;7.70;99.90
25963;DHT22;13760;52.588;13.406;2023-02-15T16:19:01;7.50;99.90
25963;DHT22;13760;52.588;13.406;2023-02-15T16:21:31;7.40;99.90
25963;DHT22;13760;52.588;13.406;2023-02-15T16:26:33;7.20;99.90
25963;DHT22;13760;52.588;13.406;2023-02-15T16:29:12;7.00;99.90
25963;DHT22;13760;52.588;13.406;2023-02-15T16:31:38;6.90;99.90
25963;DHT22;13760;52.588;13.406;2023-02-15T16:34:07;6.80;99.90
25963;DHT22;13760;52.588;13.406;2023-02-15T16:36:34;6.80;99.90
25963;DHT22;13760;52.588;13.406;2023-02-15T16:39:07;6.60;99.90
25963;DHT22;13760;52.588;13.406;2023-02-15T16:41:32;6.50;99.90
25963;DHT22;13760;52.588;13.406;2023-02-15T16:43:59;6.40;99.90
25963;DHT22;13760;52.588;13.406;2023-02-15T16:46:29;6.40;99.90
25963;DHT22;13760;52.588;13.406;2023-02-15T16:49:00;6.30;99.90
25963;DHT22;13760;52.588;13.406;2023-02-15T16:51:27;6.20;99.90
25963;DHT22;13760;52.588;13.406;2023-02-15T16:53:54;6.10;99.90
25963;DHT22;13760;52.588;13.406;2023-02-15T16:56:23;6.00;99.90
25963;DHT22;13760;52.588;13.406;2023-02-15T16:58:49;5.90;99.90
25963;DHT22;13760;52.588;13.406;2023-02-15T17:01:15;5.90;99.90
25963;DHT22;13760;52.588;13.406;2023-02-15T17:03:42;5.80;99.90
25963;DHT22;13760;52.588;13.406;2023-02-15T17:06:19;5.70;99.90
25963;DHT22;13760;52.588;13.406;2023-02-15T17:08:45;5.70;99.90
25963;DHT22;13760;52.588;13.406;2023-02-15T17:11:56;5.60;99.90
25963;DHT22;13760;52.588;13.406;2023-02-15T17:16:32;5.40;99.90
25963;DHT22;13760;52.588;13.406;2023-02-15T17:18:59;5.40;99.90
25963;DHT22;13760;52.588;13.406;2023-02-15T17:21:27;5.30;99.90
25963;DHT22;13760;52.588;13.406;2023-02-15T17:23:56;5.20;99.90
25963;DHT22;13760;52.588;13.406;2023-02-15T17:26:24;5.20;99.90
25963;DHT22;13760;52.588;13.406;2023-02-15T17:28:52;5.10;99.90
25963;DHT22;13760;52.588;13.406;2023-02-15T17:31:19;5.00;99.90
25963;DHT22;13760;52.588;13.406;2023-02-15T17:33:46;5.00;99.90
25963;DHT22;13760;52.588;13.406;2023-02-15T17:36:22;4.90;99.90
25963;DHT22;13760;52.588;13.406;2023-02-15T17:41:43;4.80;99.90
25963;DHT22;13760;52.588;13.406;2023-02-15T17:44:08;4.70;99.90
25963;DHT22;13760;52.588;13.406;2023-02-15T17:46:39;4.70;99.90
25963;DHT22;13760;52.588;13.406;2023-02-15T17:49:04;4.70;99.90
25963;DHT22;13760;52.588;13.406;2023-02-15T17:51:30;4.60;99.90
25963;DHT22;13760;52.588;13.406;2023-02-15T17:53:56;4.60;99.90
25963;DHT22;13760;52.588;13.406;2023-02-15T17:56:40;4.50;99.90
25963;DHT22;13760;52.588;13.406;2023-02-15T17:59:08;4.40;99.90
25963;DHT22;13760;52.588;13.406;2023-02-15T18:01:42;4.40;99.90
25963;DHT22;13760;52.588;13.406;2023-02-15T18:04:27;4.40;99.90
25963;DHT22;13760;52.588;13.406;2023-02-15T18:07:11;4.30;99.90
25963;DHT22;13760;52.588;13.406;2023-02-15T18:09:56;4.20;99.90
25963;DHT22;13760;52.588;13.406;2023-02-15T18:12:40;4.20;99.90
25963;DHT22;13760;52.588;13.406;2023-02-15T18:15:06;4.10;99.90
25963;DHT22;13760;52.588;13.406;2023-02-15T18:17:34;4.10;99.90
25963;DHT22;13760;52.588;13.406;2023-02-15T18:20:00;4.10;99.90
25963;DHT22;13760;52.588;13.406;2023-02-15T18:22:29;4.00;99.90
25963;DHT22;13760;52.588;13.406;2023-02-15T18:24:55;4.00;99.90
25963;DHT22;13760;52.588;13.406;2023-02-15T18:27:21;3.90;99.90
25963;DHT22;13760;52.588;13.406;2023-02-15T18:29:46;3.90;99.90